Time;durP1;ratioP1;P1;durP2;ratioP2;P2;SDS_P1;SDS_P2;PMS_P1;PMS_P2;Temp;Humidity;BMP_temperature;BMP_pressure;BME280_temperature;BME280_humidity;BME280_pressure;Samples;Min_cycle;Max_cycle;Signal;HPM_P1;HPM_P2
2022/10/17 00:01:57;;;;;;;86.40;43.43;;;15.70;99.90;;;;;;5054278;28;20621;-86
2022/10/17 00:04:22;;;;;;;85.63;41.30;;;15.80;99.90;;;;;;5055749;28;20166;-86
2022/10/17 00:06:48;;;;;;;79.43;38.87;;;15.80;99.90;;;;;;5055477;28;20181;-86
2022/10/17 00:09:14;;;;;;;84.27;39.43;;;15.80;99.90;;;;;;5141731;22;20304;-86
2022/10/17 00:11:39;;;;;;;83.90;40.30;;;15.70;99.90;;;;;;5075165;28;20199;-86
2022/10/17 00:14:05;;;;;;;79.97;39.03;;;15.80;99.90;;;;;;5075514;28;20165;-85
2022/10/17 00:16:35;;;;;;;83.87;46.37;;;15.80;99.90;;;;;;5075224;28;20522;-86
2022/10/17 00:19:02;;;;;;;80.97;41.57;;;15.70;99.90;;;;;;5057386;28;20231;-86
2022/10/17 00:21:27;;;;;;;82.60;37.20;;;15.70;99.90;;;;;;5057428;28;20422;-86
2022/10/17 00:23:53;;;;;;;82.90;36.20;;;15.70;99.90;;;;;;5075321;28;20410;-86
2022/10/17 00:26:20;;;;;;;81.00;38.97;;;15.70;99.90;;;;;;5075569;28;20408;-86
2022/10/17 00:28:52;;;;;;;94.20;59.70;;;15.70;99.90;;;;;;5074902;28;20480;-86
2022/10/17 00:31:20;;;;;;;89.57;61.47;;;15.60;99.90;;;;;;5074863;28;20392;-86
2022/10/17 00:33:46;;;;;;;87.33;48.20;;;15.60;99.90;;;;;;5074856;28;20524;-86
2022/10/17 00:36:18;;;;;;;86.93;40.67;;;15.60;99.90;;;;;;5074865;28;20403;-86
2022/10/17 00:38:45;;;;;;;79.07;36.83;;;15.70;99.90;;;;;;5057056;28;20428;-86
2022/10/17 00:41:14;;;;;;;85.30;44.60;;;15.70;99.90;;;;;;5074923;28;20408;-86
2022/10/17 00:44:01;;;;;;;82.00;40.47;;;15.60;99.90;;;;;;5074712;28;20486;-86
2022/10/17 00:46:33;;;;;;;90.97;63.77;;;15.60;99.90;;;;;;5074805;28;20872;-86
2022/10/17 00:49:06;;;;;;;87.87;59.73;;;15.60;99.90;;;;;;5075080;28;20429;-86
2022/10/17 00:51:37;;;;;;;84.57;39.97;;;15.60;99.90;;;;;;5056554;28;20505;-86
2022/10/17 00:54:03;;;;;;;82.80;34.20;;;15.60;99.90;;;;;;5056868;28;20814;-86
2022/10/17 00:56:29;;;;;;;77.30;27.07;;;15.60;99.90;;;;;;5056740;28;20410;-86
2022/10/17 00:58:56;;;;;;;76.17;24.50;;;15.60;99.90;;;;;;5074553;28;20927;-86
2022/10/17 01:01:21;;;;;;;76.67;23.87;;;15.60;99.90;;;;;;5074395;28;20403;-86
2022/10/17 01:03:47;;;;;;;77.37;20.47;;;15.60;99.90;;;;;;5075432;28;20756;-86
2022/10/17 01:06:13;;;;;;;73.97;18.63;;;15.60;99.90;;;;;;5056596;28;20173;-86
2022/10/17 01:08:39;;;;;;;82.53;26.30;;;15.50;99.90;;;;;;5074158;28;20201;-86
2022/10/17 01:11:38;;;;;;;76.53;23.90;;;15.50;99.90;;;;;;5074038;28;20167;-86
2022/10/17 01:14:27;;;;;;;74.30;22.83;;;15.50;99.90;;;;;;5069857;28;20738;-86
2022/10/17 01:17:15;;;;;;;74.90;21.80;;;15.50;99.90;;;;;;5073962;28;20400;-86
2022/10/17 01:20:18;;;;;;;75.77;27.97;;;15.50;99.90;;;;;;5074035;28;20514;-86
2022/10/17 01:22:57;;;;;;;76.87;26.97;;;15.40;99.90;;;;;;5074181;28;20810;-86
2022/10/17 01:25:33;;;;;;;75.87;26.07;;;15.40;99.90;;;;;;5074116;28;20478;-86
2022/10/17 01:28:27;;;;;;;80.37;25.63;;;15.30;99.90;;;;;;5074082;28;20392;-86
2022/10/17 01:30:55;;;;;;;76.47;24.97;;;15.30;99.90;;;;;;5055896;28;20754;-86
2022/10/17 01:33:52;;;;;;;79.93;28.70;;;15.30;99.90;;;;;;5073855;28;21022;-86
2022/10/17 01:36:38;;;;;;;78.03;24.03;;;15.30;99.90;;;;;;5073985;28;20956;-86
2022/10/17 01:39:36;;;;;;;75.20;20.90;;;15.30;99.90;;;;;;5032192;28;20432;-86
2022/10/17 01:42:14;;;;;;;77.67;20.47;;;15.30;99.90;;;;;;5073869;28;20452;-86
2022/10/17 01:44:49;;;;;;;74.67;18.57;;;15.30;99.90;;;;;;5055609;28;20412;-86
2022/10/17 01:47:21;;;;;;;77.57;23.40;;;15.30;99.90;;;;;;5073612;28;20396;-86
2022/10/17 01:49:49;;;;;;;76.70;21.20;;;15.20;99.90;;;;;;5073640;28;20463;-86
2022/10/17 01:52:32;;;;;;;79.20;23.60;;;15.20;99.90;;;;;;5073572;28;20475;-86
2022/10/17 01:55:07;;;;;;;79.30;30.30;;;15.20;99.90;;;;;;5084448;28;20396;-86
2022/10/17 01:57:40;;;;;;;75.20;20.70;;;15.20;99.90;;;;;;5081716;28;20461;-86
2022/10/17 02:00:12;;;;;;;79.00;21.87;;;15.20;99.90;;;;;;5073239;28;20788;-87
2022/10/17 02:02:40;;;;;;;75.40;18.40;;;15.20;99.90;;;;;;5073355;28;20479;-87
2022/10/17 02:05:07;;;;;;;72.70;15.83;;;15.20;99.90;;;;;;5073607;28;20820;-86
2022/10/17 02:07:32;;;;;;;75.00;16.53;;;15.20;99.90;;;;;;5073359;28;20405;-86
2022/10/17 02:09:58;;;;;;;73.47;17.57;;;15.20;99.90;;;;;;5055195;28;20430;-86
2022/10/17 02:12:24;;;;;;;74.40;17.13;;;15.20;99.90;;;;;;5073431;28;20661;-86
2022/10/17 02:15:14;;;;;;;76.30;15.83;;;15.20;99.90;;;;;;5073140;28;20168;-86
2022/10/17 02:17:46;;;;;;;73.20;15.37;;;15.20;99.90;;;;;;5073172;28;20158;-86
2022/10/17 02:20:23;;;;;;;73.47;15.40;;;15.10;99.90;;;;;;5073183;28;20390;-86
2022/10/17 02:22:57;;;;;;;76.77;16.77;;;15.10;99.90;;;;;;5073671;28;20385;-87
2022/10/17 02:25:42;;;;;;;73.70;16.00;;;15.10;99.90;;;;;;5073314;28;20408;-87
2022/10/17 02:28:38;;;;;;;73.83;17.73;;;15.10;99.90;;;;;;5073062;28;20424;-86
2022/10/17 02:31:12;;;;;;;73.20;14.17;;;15.10;99.90;;;;;;5073105;28;20395;-86
2022/10/17 02:33:58;;;;;;;72.87;14.67;;;15.10;99.90;;;;;;5073629;28;20388;-86
2022/10/17 02:36:31;;;;;;;73.27;15.20;;;15.00;99.90;;;;;;5072961;28;20455;-87
2022/10/17 02:38:58;;;;;;;73.07;16.00;;;15.00;99.90;;;;;;5055214;28;20514;-87
2022/10/17 02:41:24;;;;;;;70.53;13.40;;;15.00;99.90;;;;;;5072886;28;20488;-87
2022/10/17 02:43:52;;;;;;;75.40;16.63;;;15.00;99.90;;;;;;5072864;28;20391;-87
2022/10/17 02:46:21;;;;;;;76.90;17.83;;;15.00;99.90;;;;;;5073130;28;20788;-87
2022/10/17 02:49:14;;;;;;;74.17;17.97;;;15.00;99.90;;;;;;5054720;28;20412;-87
2022/10/17 02:52:02;;;;;;;74.37;20.97;;;15.00;99.90;;;;;;5073013;28;20534;-87
2022/10/17 02:54:31;;;;;;;76.97;17.60;;;15.00;99.90;;;;;;5073117;28;20407;-87
2022/10/17 02:57:04;;;;;;;72.80;19.00;;;15.00;99.90;;;;;;5054950;28;20407;-87
2022/10/17 02:59:34;;;;;;;75.87;23.07;;;15.00;99.90;;;;;;5072776;28;20917;-87
2022/10/17 03:02:05;;;;;;;75.70;18.50;;;15.10;99.90;;;;;;5072675;28;20403;-87
2022/10/17 03:04:32;;;;;;;75.77;22.30;;;15.10;99.90;;;;;;5055379;28;20425;-87
2022/10/17 03:06:58;;;;;;;75.13;21.60;;;15.10;99.90;;;;;;5072594;28;20400;-87
2022/10/17 03:09:23;;;;;;;80.17;23.00;;;15.10;99.90;;;;;;5072481;28;20447;-87
2022/10/17 03:11:49;;;;;;;77.00;23.47;;;15.10;99.90;;;;;;5057835;28;20454;-87
2022/10/17 03:14:15;;;;;;;75.17;24.97;;;15.10;99.90;;;;;;5058709;28;20164;-86
2022/10/17 03:16:41;;;;;;;84.37;34.67;;;15.10;99.90;;;;;;5058430;28;20407;-86
2022/10/17 03:19:07;;;;;;;89.50;39.30;;;15.10;99.90;;;;;;5076174;28;20189;-87
2022/10/17 03:21:35;;;;;;;90.20;52.77;;;15.20;99.90;;;;;;5076399;28;20166;-87
2022/10/17 03:24:01;;;;;;;82.00;43.10;;;15.20;99.90;;;;;;5076444;28;20410;-87
2022/10/17 03:26:28;;;;;;;85.43;43.73;;;15.20;99.90;;;;;;5076112;28;20404;-87
2022/10/17 03:28:54;;;;;;;80.87;30.83;;;15.20;99.90;;;;;;5076171;28;20453;-87
2022/10/17 03:31:20;;;;;;;78.03;27.70;;;15.20;99.90;;;;;;5075988;28;20432;-87
2022/10/17 03:33:46;;;;;;;79.30;28.50;;;15.20;99.90;;;;;;5076005;28;20406;-87
2022/10/17 03:36:14;;;;;;;74.60;24.43;;;15.10;99.90;;;;;;5076463;28;20405;-87
2022/10/17 03:38:40;;;;;;;81.93;18.60;;;15.20;99.90;;;;;;5076123;28;20186;-87
2022/10/17 03:41:06;;;;;;;78.97;33.17;;;15.20;99.90;;;;;;5058256;28;20498;-87
2022/10/17 03:43:32;;;;;;;78.33;28.07;;;15.20;99.90;;;;;;5075868;28;20857;-87
2022/10/17 03:45:59;;;;;;;81.63;36.23;;;15.20;99.90;;;;;;5075794;28;20404;-87
2022/10/17 03:48:26;;;;;;;83.53;42.87;;;15.20;99.90;;;;;;5075706;28;20426;-87
2022/10/17 03:50:51;;;;;;;85.97;48.43;;;15.20;99.90;;;;;;5058286;28;20430;-87
2022/10/17 03:53:18;;;;;;;83.07;46.60;;;15.30;99.90;;;;;;5075605;28;20448;-87
2022/10/17 03:55:46;;;;;;;82.40;40.13;;;15.30;99.90;;;;;;5058002;28;20253;-87
2022/10/17 03:58:12;;;;;;;81.20;41.20;;;15.40;99.90;;;;;;5075682;28;20921;-86
2022/10/17 04:00:38;;;;;;;80.07;34.97;;;15.40;99.90;;;;;;5075539;28;20406;-87
2022/10/17 04:03:03;;;;;;;79.90;31.47;;;15.40;99.90;;;;;;5075460;28;20245;-86
2022/10/17 04:05:29;;;;;;;83.73;35.33;;;15.50;99.90;;;;;;5075722;28;20165;-87
2022/10/17 04:07:55;;;;;;;79.53;26.47;;;15.50;99.90;;;;;;5075271;28;20182;-87
2022/10/17 04:10:20;;;;;;;76.60;26.23;;;15.40;99.90;;;;;;5075653;28;20164;-86
2022/10/17 04:12:46;;;;;;;79.50;30.90;;;15.40;99.90;;;;;;5057365;28;20684;-86
2022/10/17 04:15:12;;;;;;;82.87;34.77;;;15.40;99.90;;;;;;5075224;28;20163;-86
2022/10/17 04:17:37;;;;;;;78.30;27.87;;;15.50;99.90;;;;;;5075216;28;20162;-87
2022/10/17 04:20:03;;;;;;;77.53;29.40;;;15.40;99.90;;;;;;5075130;28;20558;-87
2022/10/17 04:22:29;;;;;;;83.07;25.90;;;15.50;99.90;;;;;;5074692;28;20534;-87
2022/10/17 04:24:55;;;;;;;78.63;26.97;;;15.50;99.90;;;;;;5075031;28;20412;-87
2022/10/17 04:27:20;;;;;;;81.57;33.07;;;15.50;99.90;;;;;;5075019;28;20177;-87
2022/10/17 04:29:46;;;;;;;77.47;28.17;;;15.50;99.90;;;;;;5056977;28;20198;-87
2022/10/17 04:32:11;;;;;;;76.17;30.57;;;15.50;99.90;;;;;;5074898;28;20190;-87
2022/10/17 04:34:37;;;;;;;77.53;24.23;;;15.50;99.90;;;;;;5056973;28;20166;-87
2022/10/17 04:37:12;;;;;;;79.00;26.80;;;15.50;99.90;;;;;;5056882;28;20538;-87
2022/10/17 04:39:38;;;;;;;76.67;26.30;;;15.40;99.90;;;;;;5075052;28;20203;-86
2022/10/17 04:42:03;;;;;;;77.20;30.67;;;15.50;99.90;;;;;;5074746;28;20515;-87
2022/10/17 04:44:30;;;;;;;75.37;27.07;;;15.40;99.90;;;;;;5074802;28;20166;-87
2022/10/17 04:46:55;;;;;;;77.37;23.93;;;15.40;99.90;;;;;;5058121;28;20175;-87
2022/10/17 04:49:21;;;;;;;74.27;23.23;;;15.40;99.90;;;;;;5056581;28;21009;-87
2022/10/17 04:51:47;;;;;;;81.17;30.50;;;15.40;99.90;;;;;;5074470;28;20204;-87
2022/10/17 04:54:16;;;;;;;80.23;24.33;;;15.40;99.90;;;;;;5074771;28;20221;-86
2022/10/17 04:56:41;;;;;;;80.00;28.30;;;15.40;99.90;;;;;;5074415;28;20163;-86
2022/10/17 04:59:07;;;;;;;84.37;21.97;;;15.40;99.90;;;;;;5074608;28;20939;-86
2022/10/17 05:01:33;;;;;;;74.53;23.13;;;15.40;99.90;;;;;;5074351;28;20630;-87
2022/10/17 05:03:58;;;;;;;77.57;25.83;;;15.40;99.90;;;;;;5074886;28;20170;-87
2022/10/17 05:06:27;;;;;;;79.57;30.60;;;15.40;99.90;;;;;;5056345;28;20169;-87
2022/10/17 05:08:56;;;;;;;78.80;29.87;;;15.40;99.90;;;;;;5056044;28;20205;-86
2022/10/17 05:11:25;;;;;;;79.43;32.60;;;15.40;99.90;;;;;;5074066;28;20440;-87
2022/10/17 05:13:53;;;;;;;75.90;22.73;;;15.50;99.90;;;;;;5165936;22;20837;-86
2022/10/17 05:16:20;;;;;;;76.03;18.53;;;15.60;99.90;;;;;;5139187;27;20388;-86
2022/10/17 05:18:50;;;;;;;74.10;18.50;;;15.60;99.90;;;;;;5136965;27;20444;-85
2022/10/17 05:21:17;;;;;;;72.40;16.60;;;15.60;99.90;;;;;;5136416;27;20393;-86
2022/10/17 05:23:42;;;;;;;79.27;19.63;;;15.60;99.90;;;;;;5135953;27;20394;-86
2022/10/17 05:26:08;;;;;;;74.40;22.70;;;15.60;99.90;;;;;;5117780;27;20454;-86
2022/10/17 05:28:34;;;;;;;77.47;27.40;;;15.60;99.90;;;;;;5136065;27;20413;-86
2022/10/17 05:31:07;;;;;;;79.60;26.90;;;15.60;99.90;;;;;;5117567;27;20726;-86
2022/10/17 05:33:34;;;;;;;76.97;28.53;;;15.70;99.90;;;;;;5135290;27;20240;-86
2022/10/17 05:36:00;;;;;;;77.47;27.20;;;15.60;99.90;;;;;;5136132;27;20425;-86
2022/10/17 05:38:28;;;;;;;75.93;25.87;;;15.60;99.90;;;;;;5136056;27;20425;-86
2022/10/17 05:40:58;;;;;;;76.17;25.63;;;15.70;99.90;;;;;;5135943;27;20765;-86
2022/10/17 05:43:24;;;;;;;78.57;19.60;;;15.70;99.90;;;;;;5117919;27;20478;-86
2022/10/17 05:45:50;;;;;;;73.63;16.77;;;15.70;99.90;;;;;;5123218;27;20412;-86
2022/10/17 05:48:16;;;;;;;73.97;18.53;;;15.60;99.90;;;;;;5144529;27;20783;-86
2022/10/17 05:50:41;;;;;;;75.73;16.80;;;15.60;99.90;;;;;;5125534;27;20393;-86
2022/10/17 05:53:07;;;;;;;74.37;17.40;;;15.70;99.90;;;;;;5143373;27;20262;-86
2022/10/17 05:55:33;;;;;;;77.17;18.47;;;15.70;99.90;;;;;;5142424;27;20160;-86
2022/10/17 05:58:00;;;;;;;74.90;17.93;;;15.70;99.90;;;;;;5124104;27;20186;-86
2022/10/17 06:00:28;;;;;;;72.07;18.13;;;15.70;99.90;;;;;;5141757;27;20168;-86
2022/10/17 06:03:00;;;;;;;75.17;18.93;;;15.70;99.90;;;;;;5124024;27;20477;-86
2022/10/17 06:05:26;;;;;;;77.27;18.30;;;15.70;99.90;;;;;;5122227;27;20512;-86
2022/10/17 06:07:52;;;;;;;77.87;21.70;;;15.70;99.90;;;;;;5119756;27;20446;-86
2022/10/17 06:10:18;;;;;;;80.47;23.07;;;15.70;99.90;;;;;;5120431;27;20429;-86
2022/10/17 06:12:44;;;;;;;75.70;22.93;;;15.70;99.90;;;;;;5120092;27;20186;-86
2022/10/17 06:15:10;;;;;;;75.90;20.00;;;15.80;99.90;;;;;;5120013;27;20406;-86
2022/10/17 06:17:36;;;;;;;73.23;17.40;;;15.80;99.90;;;;;;5121131;28;20399;-87
2022/10/17 06:20:03;;;;;;;73.27;15.07;;;15.80;99.90;;;;;;5138381;27;20429;-87
2022/10/17 06:22:28;;;;;;;76.97;17.20;;;15.90;99.90;;;;;;5119142;28;20414;-87
2022/10/17 06:24:54;;;;;;;71.57;13.00;;;15.90;99.90;;;;;;5119063;28;20412;-86
2022/10/17 06:27:20;;;;;;;72.17;13.37;;;15.90;99.90;;;;;;5137756;28;20236;-86
2022/10/17 06:29:46;;;;;;;73.30;13.73;;;15.90;99.90;;;;;;5119451;28;20223;-86
2022/10/17 06:32:13;;;;;;;74.00;14.13;;;16.00;99.90;;;;;;5137787;28;20196;-86
2022/10/17 06:34:38;;;;;;;73.33;14.37;;;16.00;99.90;;;;;;5118831;28;20409;-87
2022/10/17 06:37:04;;;;;;;74.87;15.60;;;16.00;99.90;;;;;;5136160;28;20768;-86
2022/10/17 06:39:32;;;;;;;71.97;14.00;;;16.00;99.90;;;;;;5136064;28;20181;-86
2022/10/17 06:42:02;;;;;;;71.77;13.43;;;16.00;99.90;;;;;;5118114;28;20180;-86
2022/10/17 06:44:30;;;;;;;71.60;13.53;;;16.10;99.90;;;;;;5137240;27;20404;-86
2022/10/17 06:46:57;;;;;;;76.23;12.73;;;16.10;99.90;;;;;;5122588;27;20410;-86
2022/10/17 06:49:22;;;;;;;71.70;13.47;;;16.20;99.90;;;;;;5122414;27;20428;-86
2022/10/17 06:51:48;;;;;;;80.27;12.30;;;16.20;99.90;;;;;;5141174;27;20449;-86
2022/10/17 06:54:14;;;;;;;73.37;12.07;;;16.10;99.90;;;;;;5123452;27;20660;-86
2022/10/17 06:56:40;;;;;;;74.77;14.23;;;16.20;99.90;;;;;;5141052;27;20165;-86
2022/10/17 06:59:05;;;;;;;74.07;13.07;;;16.20;99.90;;;;;;5123791;27;20192;-87
2022/10/17 07:01:33;;;;;;;75.07;13.77;;;16.30;99.90;;;;;;5141826;27;20402;-86
2022/10/17 07:03:58;;;;;;;74.63;11.80;;;16.30;99.90;;;;;;5123254;27;20171;-86
2022/10/17 07:06:24;;;;;;;70.07;11.90;;;16.40;99.90;;;;;;5140407;27;20975;-86
2022/10/17 07:08:50;;;;;;;77.83;12.50;;;16.50;99.90;;;;;;5138750;27;20180;-86
2022/10/17 07:11:19;;;;;;;69.57;11.63;;;16.60;99.90;;;;;;5120178;27;20208;-86
2022/10/17 07:13:45;;;;;;;71.97;11.43;;;16.60;99.90;;;;;;5120079;27;20423;-86
2022/10/17 07:16:11;;;;;;;80.57;9.70;;;16.70;99.90;;;;;;5138266;27;20392;-85
2022/10/17 07:18:37;;;;;;;78.97;10.00;;;16.70;99.90;;;;;;5120579;27;20961;-85
2022/10/17 07:21:04;;;;;;;70.47;10.10;;;16.70;99.90;;;;;;5138662;27;20392;-85
2022/10/17 07:23:30;;;;;;;71.27;11.07;;;16.70;99.90;;;;;;5139020;27;20169;-86
2022/10/17 07:26:01;;;;;;;75.73;11.87;;;16.80;99.90;;;;;;5122521;27;20406;-86
2022/10/17 07:28:27;;;;;;;74.27;11.43;;;16.90;99.90;;;;;;5138938;27;20495;-86
2022/10/17 07:30:53;;;;;;;77.57;11.77;;;16.90;99.90;;;;;;5119682;27;20776;-86
2022/10/17 07:33:19;;;;;;;71.63;11.57;;;16.90;99.90;;;;;;5138073;27;20439;-86
2022/10/17 07:35:45;;;;;;;70.17;9.80;;;17.00;99.90;;;;;;5138437;27;20396;-86
2022/10/17 07:38:10;;;;;;;70.30;10.80;;;17.00;99.90;;;;;;5124868;27;20663;-86
2022/10/17 07:40:36;;;;;;;70.80;10.33;;;17.10;99.90;;;;;;5143120;27;20158;-86
2022/10/17 07:43:02;;;;;;;74.53;10.73;;;17.10;99.90;;;;;;5143203;27;20173;-87
2022/10/17 07:45:27;;;;;;;73.17;10.67;;;17.20;99.90;;;;;;5149481;22;20216;-86
2022/10/17 07:47:57;;;;;;;70.87;11.60;;;17.30;99.90;;;;;;5187327;22;20222;-86
2022/10/17 07:50:23;;;;;;;73.13;11.40;;;17.30;99.90;;;;;;5101056;28;20638;-86
2022/10/17 07:52:49;;;;;;;70.37;12.73;;;17.30;99.90;;;;;;5100848;28;20444;-86
2022/10/17 07:55:14;;;;;;;73.40;14.67;;;17.50;99.90;;;;;;5100262;28;20412;-86
2022/10/17 07:57:40;;;;;;;74.97;16.00;;;17.60;99.90;;;;;;5100409;28;20398;-86
2022/10/17 08:00:07;;;;;;;71.00;13.63;;;17.60;99.90;;;;;;5100982;28;20175;-86
2022/10/17 08:02:33;;;;;;;69.07;11.00;;;17.70;99.90;;;;;;5099898;28;20171;-86
2022/10/17 08:04:58;;;;;;;70.17;12.60;;;17.70;99.90;;;;;;5100637;28;20807;-87
2022/10/17 08:07:24;;;;;;;72.03;13.03;;;17.80;99.90;;;;;;5100848;28;20171;-86
2022/10/17 08:09:50;;;;;;;72.23;10.60;;;17.80;99.90;;;;;;5081714;28;20190;-86
2022/10/17 08:12:16;;;;;;;72.33;11.30;;;17.90;99.90;;;;;;5099149;28;20550;-86
2022/10/17 08:14:42;;;;;;;71.70;11.40;;;18.00;99.90;;;;;;5100741;28;20567;-86
2022/10/17 08:17:09;;;;;;;72.83;11.37;;;18.00;99.90;;;;;;5081483;28;20428;-86
2022/10/17 08:19:38;;;;;;;71.03;11.20;;;18.10;99.90;;;;;;5100355;28;20931;-86
2022/10/17 08:22:03;;;;;;;72.43;12.17;;;18.10;99.90;;;;;;5082320;28;20947;-86
2022/10/17 08:24:29;;;;;;;73.27;12.57;;;18.10;99.90;;;;;;5100419;28;20497;-86
2022/10/17 08:26:57;;;;;;;76.33;11.03;;;18.20;99.90;;;;;;5083160;28;20203;-86
2022/10/17 08:29:22;;;;;;;72.30;11.50;;;18.20;99.90;;;;;;5100523;28;20183;-86
2022/10/17 08:31:48;;;;;;;71.20;10.70;;;18.30;99.90;;;;;;5102704;28;20433;-86
2022/10/17 08:34:14;;;;;;;72.30;14.40;;;18.30;99.90;;;;;;5101324;28;20784;-86
2022/10/17 08:36:40;;;;;;;71.53;12.60;;;18.30;99.90;;;;;;5101083;28;20187;-86
2022/10/17 08:39:06;;;;;;;72.00;12.23;;;18.40;99.90;;;;;;5082128;28;20459;-86
2022/10/17 08:41:56;;;;;;;71.87;11.37;;;18.50;99.90;;;;;;5085053;28;20164;-86
2022/10/17 08:44:43;;;;;;;71.40;12.10;;;18.50;99.90;;;;;;5103975;28;20151;-86
2022/10/17 08:47:13;;;;;;;73.50;13.43;;;18.60;99.90;;;;;;5100732;28;20485;-87
2022/10/17 08:49:50;;;;;;;71.90;12.30;;;18.70;99.90;;;;;;5100295;28;20812;-86
2022/10/17 08:52:37;;;;;;;74.10;13.47;;;18.70;99.90;;;;;;5083707;28;20448;-86
2022/10/17 08:55:11;;;;;;;70.70;13.63;;;18.80;99.90;;;;;;5101268;28;20477;-87
2022/10/17 08:57:37;;;;;;;71.87;14.97;;;18.80;99.90;;;;;;5099086;28;20385;-86
2022/10/17 09:00:11;;;;;;;69.83;15.50;;;18.80;99.90;;;;;;5079587;28;20433;-86
2022/10/17 09:02:59;;;;;;;72.90;15.37;;;18.80;99.90;;;;;;5099325;28;20182;-86
2022/10/17 09:05:34;;;;;;;69.67;13.50;;;18.90;99.90;;;;;;5079942;28;20397;-85
2022/10/17 09:08:21;;;;;;;71.17;15.07;;;18.90;99.90;;;;;;5095920;28;20389;-85
2022/10/17 09:11:00;;;;;;;77.70;19.70;;;18.90;99.90;;;;;;5095234;28;20768;-86
2022/10/17 09:13:46;;;;;;;72.60;16.83;;;18.90;99.90;;;;;;5095734;28;20430;-86
2022/10/17 09:16:39;;;;;;;72.07;15.10;;;18.90;99.90;;;;;;5077418;28;20408;-86
2022/10/17 09:19:17;;;;;;;81.20;16.30;;;18.90;99.90;;;;;;5094907;28;20424;-86
2022/10/17 09:21:49;;;;;;;77.00;15.50;;;18.90;99.90;;;;;;5095419;28;20934;-86
2022/10/17 09:24:34;;;;;;;71.87;14.90;;;19.00;99.90;;;;;;5095164;28;20860;-86
2022/10/17 09:27:00;;;;;;;73.17;14.50;;;19.00;99.90;;;;;;5095256;28;20398;-85
2022/10/17 09:29:26;;;;;;;70.97;16.00;;;19.00;99.90;;;;;;5081558;28;20436;-86
2022/10/17 09:32:03;;;;;;;72.10;16.27;;;19.00;99.90;;;;;;5105053;28;20183;-86
2022/10/17 09:34:31;;;;;;;72.60;16.60;;;19.10;99.90;;;;;;5106897;28;20461;-86
2022/10/17 09:36:58;;;;;;;74.47;15.17;;;19.10;99.90;;;;;;5098986;28;20398;-86
2022/10/17 09:39:25;;;;;;;74.40;15.27;;;19.10;99.90;;;;;;5097399;28;20517;-86
2022/10/17 09:41:54;;;;;;;74.03;15.07;;;19.20;99.90;;;;;;5081136;28;20417;-86
2022/10/17 09:44:23;;;;;;;69.77;15.63;;;19.20;99.90;;;;;;5097763;28;20406;-86
2022/10/17 09:47:18;;;;;;;70.10;14.00;;;19.30;99.90;;;;;;5098035;28;20491;-86
2022/10/17 09:49:46;;;;;;;73.97;12.43;;;19.30;99.90;;;;;;5100350;28;20445;-86
2022/10/17 09:52:24;;;;;;;74.57;15.30;;;19.30;99.90;;;;;;5100678;28;20448;-86
2022/10/17 09:55:02;;;;;;;71.77;14.37;;;19.30;99.90;;;;;;5081512;28;20485;-86
2022/10/17 09:57:27;;;;;;;72.50;13.30;;;19.40;99.90;;;;;;5100594;28;20389;-86
2022/10/17 10:00:04;;;;;;;71.57;15.90;;;19.40;99.90;;;;;;5082324;28;20421;-86
2022/10/17 10:02:30;;;;;;;72.70;14.07;;;19.40;99.90;;;;;;5100194;28;20163;-86
2022/10/17 10:05:15;;;;;;;75.40;12.50;;;19.50;99.90;;;;;;5082449;28;20424;-86
2022/10/17 10:07:42;;;;;;;68.53;8.70;;;19.60;99.90;;;;;;5103846;28;20388;-86
2022/10/17 10:10:23;;;;;;;70.60;10.57;;;19.80;99.90;;;;;;5104416;28;20417;-85
2022/10/17 10:13:24;;;;;;;70.70;7.97;;;20.00;99.90;;;;;;5086759;28;20442;-86
2022/10/17 10:15:50;;;;;;;69.83;8.93;;;20.20;99.90;;;;;;5060302;28;20445;-86
2022/10/17 10:18:25;;;;;;;68.30;8.03;;;20.30;99.90;;;;;;5104024;28;20425;-86
2022/10/17 10:21:12;;;;;;;69.90;9.83;;;20.40;99.90;;;;;;5100269;28;20386;-86
2022/10/17 10:23:43;;;;;;;68.97;8.53;;;20.60;99.90;;;;;;5099715;28;20417;-87
2022/10/17 10:26:25;;;;;;;67.67;7.80;;;20.50;99.90;;;;;;5082567;28;20462;-86
2022/10/17 10:28:52;;;;;;;72.97;9.13;;;20.40;99.90;;;;;;5083068;28;20433;-86
2022/10/17 10:31:26;;;;;;;69.80;7.77;;;20.40;99.90;;;;;;5102616;28;20912;-86
2022/10/17 10:33:52;;;;;;;69.33;7.60;;;20.30;99.90;;;;;;5084117;28;20405;-86
2022/10/17 10:36:21;;;;;;;71.40;7.80;;;20.30;99.90;;;;;;5083708;28;20410;-86
2022/10/17 10:39:02;;;;;;;70.50;8.17;;;20.40;99.90;;;;;;5101949;28;20176;-86
2022/10/17 10:41:44;;;;;;;68.00;7.80;;;20.40;99.90;;;;;;5103098;28;20455;-86
2022/10/17 10:44:14;;;;;;;71.73;7.17;;;20.40;99.90;;;;;;5082795;28;20405;-85
2022/10/17 10:46:42;;;;;;;68.63;6.03;;;20.40;99.90;;;;;;5096117;28;20394;-85
2022/10/17 10:49:29;;;;;;;68.77;7.30;;;20.30;99.90;;;;;;5077890;28;20806;-85
2022/10/17 10:51:57;;;;;;;67.00;6.73;;;20.30;99.90;;;;;;5076274;28;20444;-85
2022/10/17 10:54:31;;;;;;;67.90;6.43;;;20.20;99.90;;;;;;5095628;28;20391;-85
2022/10/17 10:57:02;;;;;;;69.20;7.43;;;20.20;99.90;;;;;;5094922;28;20435;-85
2022/10/17 10:59:38;;;;;;;68.03;7.27;;;20.30;99.90;;;;;;5094942;28;20920;-85
2022/10/17 11:02:27;;;;;;;67.97;7.23;;;20.40;99.90;;;;;;5094787;28;20409;-86
2022/10/17 11:04:59;;;;;;;68.60;7.10;;;20.40;99.90;;;;;;5076521;28;20402;-86
2022/10/17 11:07:54;;;;;;;68.67;7.17;;;20.50;99.90;;;;;;5094964;28;20408;-86
2022/10/17 11:10:58;;;;;;;76.07;7.50;;;20.50;99.90;;;;;;5076882;28;20455;-86
2022/10/17 11:13:28;;;;;;;70.53;7.20;;;20.40;99.90;;;;;;5165718;22;20496;-84
2022/10/17 11:16:06;;;;;;;71.37;7.23;;;20.40;99.90;;;;;;5113232;28;20439;-85
2022/10/17 11:18:41;;;;;;;68.90;7.73;;;20.40;99.90;;;;;;5113114;28;20409;-85
2022/10/17 11:21:17;;;;;;;74.23;7.83;;;20.50;99.90;;;;;;5113205;28;20418;-85
2022/10/17 11:23:58;;;;;;;68.73;6.80;;;20.60;99.90;;;;;;5113206;28;20448;-85
2022/10/17 11:26:27;;;;;;;69.73;7.83;;;20.70;99.90;;;;;;5113579;28;20942;-86
2022/10/17 11:28:54;;;;;;;69.90;6.77;;;20.70;99.90;;;;;;5094791;28;21043;-86
2022/10/17 11:31:27;;;;;;;70.17;7.13;;;20.70;99.90;;;;;;5113981;28;20421;-86
2022/10/17 11:33:58;;;;;;;70.10;7.00;;;20.70;99.90;;;;;;5099189;28;20409;-86
2022/10/17 11:36:31;;;;;;;72.60;6.50;;;20.80;99.90;;;;;;5116702;28;20404;-86
2022/10/17 11:39:10;;;;;;;69.57;6.50;;;20.70;99.90;;;;;;5116814;28;20439;-84
2022/10/17 11:41:48;;;;;;;69.47;5.90;;;20.70;99.90;;;;;;5118082;28;20370;-84
2022/10/17 11:44:35;;;;;;;66.63;5.80;;;20.80;99.90;;;;;;5120415;28;20474;-85
2022/10/17 11:47:09;;;;;;;68.43;6.77;;;20.90;99.90;;;;;;5101762;28;20395;-85
2022/10/17 11:49:39;;;;;;;66.10;6.10;;;20.90;99.90;;;;;;5116823;28;20413;-85
2022/10/17 11:52:24;;;;;;;71.40;5.90;;;20.80;99.90;;;;;;5116488;28;20436;-86
2022/10/17 11:54:56;;;;;;;71.93;6.63;;;20.80;99.90;;;;;;5098088;28;20441;-85
2022/10/17 11:57:47;;;;;;;69.10;6.57;;;20.70;99.90;;;;;;5117055;28;20745;-85
2022/10/17 12:00:21;;;;;;;69.83;7.07;;;20.70;99.90;;;;;;5117125;28;20484;-85
2022/10/17 12:03:24;;;;;;;70.80;8.27;;;20.80;99.90;;;;;;5098940;28;20501;-85
2022/10/17 12:06:19;;;;;;;71.50;7.90;;;20.70;99.90;;;;;;5121392;28;20396;-85
2022/10/17 12:09:11;;;;;;;68.97;6.83;;;20.70;99.90;;;;;;5103064;28;21009;-86
2022/10/17 12:11:52;;;;;;;68.33;8.37;;;20.80;99.90;;;;;;5098126;28;20461;-85
2022/10/17 12:14:43;;;;;;;67.10;6.63;;;20.80;99.90;;;;;;5115997;28;20408;-86
2022/10/17 12:17:39;;;;;;;80.27;7.63;;;20.80;99.90;;;;;;5085892;28;20432;-86
2022/10/17 12:20:19;;;;;;;69.10;6.70;;;20.80;99.90;;;;;;5115899;28;20426;-86
2022/10/17 12:22:56;;;;;;;74.03;6.30;;;20.70;99.90;;;;;;5116145;28;20498;-85
2022/10/17 12:25:28;;;;;;;72.67;6.90;;;20.70;99.90;;;;;;5115829;28;20799;-86
2022/10/17 12:28:03;;;;;;;71.67;6.30;;;20.70;99.90;;;;;;5116029;28;20415;-86
2022/10/17 12:30:29;;;;;;;66.30;5.77;;;20.70;99.90;;;;;;5116044;28;20422;-86
2022/10/17 12:33:04;;;;;;;68.90;5.63;;;20.70;99.90;;;;;;5115668;28;20579;-86
2022/10/17 12:35:32;;;;;;;67.13;5.70;;;20.70;99.90;;;;;;5115715;28;20407;-86
2022/10/17 12:38:13;;;;;;;67.30;6.37;;;20.70;99.90;;;;;;5098090;28;20759;-86
2022/10/17 12:40:42;;;;;;;69.07;5.77;;;20.60;99.90;;;;;;5098117;28;20941;-85
2022/10/17 12:43:14;;;;;;;67.87;6.30;;;20.50;99.90;;;;;;5115033;28;20464;-86
2022/10/17 12:45:50;;;;;;;69.50;5.73;;;20.50;99.90;;;;;;5115384;28;20427;-86
2022/10/17 12:48:38;;;;;;;67.87;5.87;;;20.40;99.90;;;;;;5097588;28;20424;-86
2022/10/17 12:51:12;;;;;;;66.90;5.90;;;20.40;99.90;;;;;;5097012;28;20841;-86